sensor_id;sensor_type;location;lat;lon;timestamp;pressure;altitude;pressure_sealevel;temperature;humidity
69535;BME280;56754;51.568;5.048;2024-02-23T00:00:34;98787.66;;;9.28;73.57
69535;BME280;56754;51.568;5.048;2024-02-23T00:02:59;98789.94;;;9.26;74.94
69535;BME280;56754;51.568;5.048;2024-02-23T00:05:25;98791.03;;;9.25;75.41
69535;BME280;56754;51.568;5.048;2024-02-23T00:07:50;98794.81;;;9.24;76.00
69535;BME280;56754;51.568;5.048;2024-02-23T00:10:16;98807.03;;;9.25;75.87
69535;BME280;56754;51.568;5.048;2024-02-23T00:12:41;98808.91;;;9.24;73.75
69535;BME280;56754;51.568;5.048;2024-02-23T00:15:07;98799.38;;;9.23;75.07
69535;BME280;56754;51.568;5.048;2024-02-23T00:17:32;98810.81;;;9.24;76.05
69535;BME280;56754;51.568;5.048;2024-02-23T00:19:57;98814.59;;;9.23;76.03
69535;BME280;56754;51.568;5.048;2024-02-23T00:22:23;98813.41;;;9.20;75.08
69535;BME280;56754;51.568;5.048;2024-02-23T00:24:48;98814.53;;;9.19;75.63
69535;BME280;56754;51.568;5.048;2024-02-23T00:27:15;98819.09;;;9.19;75.41
69535;BME280;56754;51.568;5.048;2024-02-23T00:29:40;98825.19;;;9.19;76.17
69535;BME280;56754;51.568;5.048;2024-02-23T00:32:06;98827.44;;;9.17;75.12
69535;BME280;56754;51.568;5.048;2024-02-23T00:34:31;98837.31;;;9.17;75.58
69535;BME280;56754;51.568;5.048;2024-02-23T00:36:56;98836.53;;;9.16;74.70
69535;BME280;56754;51.568;5.048;2024-02-23T00:39:21;98835.00;;;9.15;75.20
69535;BME280;56754;51.568;5.048;2024-02-23T00:41:47;98845.22;;;9.13;75.49
69535;BME280;56754;51.568;5.048;2024-02-23T00:44:12;98841.78;;;9.13;73.88
69535;BME280;56754;51.568;5.048;2024-02-23T00:46:37;98844.81;;;9.11;75.44
69535;BME280;56754;51.568;5.048;2024-02-23T00:49:03;98850.91;;;9.11;74.34
69535;BME280;56754;51.568;5.048;2024-02-23T00:51:28;98853.91;;;9.10;75.09
69535;BME280;56754;51.568;5.048;2024-02-23T00:53:53;98865.72;;;9.09;75.38
69535;BME280;56754;51.568;5.048;2024-02-23T00:56:22;98861.47;;;9.08;75.40
69535;BME280;56754;51.568;5.048;2024-02-23T00:58:50;98862.59;;;9.07;74.58
69535;BME280;56754;51.568;5.048;2024-02-23T01:01:15;98865.28;;;9.07;74.52
69535;BME280;56754;51.568;5.048;2024-02-23T01:03:41;98874.03;;;9.07;76.21
69535;BME280;56754;51.568;5.048;2024-02-23T01:06:06;98867.94;;;9.07;75.60
69535;BME280;56754;51.568;5.048;2024-02-23T01:08:31;98876.28;;;9.05;74.07
69535;BME280;56754;51.568;5.048;2024-02-23T01:10:56;98881.63;;;9.05;74.42
69535;BME280;56754;51.568;5.048;2024-02-23T01:13:24;98881.63;;;9.05;75.66
69535;BME280;56754;51.568;5.048;2024-02-23T01:15:50;98877.00;;;9.02;75.19
69535;BME280;56754;51.568;5.048;2024-02-23T01:18:15;98883.50;;;9.05;74.06
69535;BME280;56754;51.568;5.048;2024-02-23T01:20:40;98881.19;;;9.03;74.54
69535;BME280;56754;51.568;5.048;2024-02-23T01:23:06;98889.50;;;9.02;75.24
69535;BME280;56754;51.568;5.048;2024-02-23T01:25:31;98894.06;;;9.01;75.10
69535;BME280;56754;51.568;5.048;2024-02-23T01:27:56;98891.00;;;8.99;75.17
69535;BME280;56754;51.568;5.048;2024-02-23T01:30:21;98887.53;;;8.99;73.30
69535;BME280;56754;51.568;5.048;2024-02-23T01:32:47;98882.56;;;8.97;74.18
69535;BME280;56754;51.568;5.048;2024-02-23T01:35:13;98893.56;;;8.96;74.46
69535;BME280;56754;51.568;5.048;2024-02-23T01:37:38;98884.03;;;8.95;74.62
69535;BME280;56754;51.568;5.048;2024-02-23T01:40:04;98896.91;;;8.93;75.38
69535;BME280;56754;51.568;5.048;2024-02-23T01:42:29;98895.81;;;8.94;75.34
69535;BME280;56754;51.568;5.048;2024-02-23T01:44:55;98897.69;;;8.93;75.32
69535;BME280;56754;51.568;5.048;2024-02-23T01:47:20;98897.34;;;8.95;76.32
69535;BME280;56754;51.568;5.048;2024-02-23T01:49:46;98905.34;;;8.95;73.67
69535;BME280;56754;51.568;5.048;2024-02-23T01:52:12;98890.50;;;8.94;75.79
69535;BME280;56754;51.568;5.048;2024-02-23T01:54:38;98898.88;;;8.96;75.87
69535;BME280;56754;51.568;5.048;2024-02-23T01:57:04;98893.56;;;8.96;75.80
69535;BME280;56754;51.568;5.048;2024-02-23T01:59:29;98898.56;;;8.97;75.60
69535;BME280;56754;51.568;5.048;2024-02-23T02:01:55;98888.66;;;8.98;75.39
69535;BME280;56754;51.568;5.048;2024-02-23T02:04:20;98893.56;;;8.96;74.57
69535;BME280;56754;51.568;5.048;2024-02-23T02:06:46;98900.78;;;8.95;74.90
69535;BME280;56754;51.568;5.048;2024-02-23T02:09:12;98893.91;;;8.94;75.64
69535;BME280;56754;51.568;5.048;2024-02-23T02:11:47;98893.91;;;8.94;76.04
69535;BME280;56754;51.568;5.048;2024-02-23T02:14:13;98892.03;;;8.95;74.70
69535;BME280;56754;51.568;5.048;2024-02-23T02:16:39;98897.69;;;8.93;74.85
69535;BME280;56754;51.568;5.048;2024-02-23T02:19:04;98892.34;;;8.93;75.44
69535;BME280;56754;51.568;5.048;2024-02-23T02:21:31;98905.25;;;8.91;75.54
69535;BME280;56754;51.568;5.048;2024-02-23T02:23:57;98901.41;;;8.88;74.63
69535;BME280;56754;51.568;5.048;2024-02-23T02:26:22;98911.28;;;8.88;74.62
69535;BME280;56754;51.568;5.048;2024-02-23T02:28:47;98911.28;;;8.88;75.11
69535;BME280;56754;51.568;5.048;2024-02-23T02:31:13;98912.06;;;8.88;75.42
69535;BME280;56754;51.568;5.048;2024-02-23T02:33:40;98909.38;;;8.88;74.74
69535;BME280;56754;51.568;5.048;2024-02-23T02:36:05;98924.25;;;8.89;75.21
69535;BME280;56754;51.568;5.048;2024-02-23T02:38:30;98917.03;;;8.90;75.09
69535;BME280;56754;51.568;5.048;2024-02-23T02:40:56;98909.81;;;8.91;75.39
69535;BME280;56754;51.568;5.048;2024-02-23T02:43:21;98923.16;;;8.91;74.50
69535;BME280;56754;51.568;5.048;2024-02-23T02:45:46;98928.47;;;8.91;75.07
69535;BME280;56754;51.568;5.048;2024-02-23T02:48:11;98929.56;;;8.89;74.66
69535;BME280;56754;51.568;5.048;2024-02-23T02:50:37;98927.28;;;8.88;74.70
69535;BME280;56754;51.568;5.048;2024-02-23T02:53:02;98926.50;;;8.87;75.14
69535;BME280;56754;51.568;5.048;2024-02-23T02:55:27;98925.38;;;8.88;76.23
69535;BME280;56754;51.568;5.048;2024-02-23T02:57:53;98934.91;;;8.89;73.50
69535;BME280;56754;51.568;5.048;2024-02-23T03:00:18;98938.69;;;8.88;74.55
69535;BME280;56754;51.568;5.048;2024-02-23T03:02:43;98935.25;;;8.88;74.17
69535;BME280;56754;51.568;5.048;2024-02-23T03:05:09;98945.56;;;8.89;75.67
69535;BME280;56754;51.568;5.048;2024-02-23T03:07:34;98933.00;;;8.90;75.29
69535;BME280;56754;51.568;5.048;2024-02-23T03:09:59;98938.78;;;8.92;74.38
69535;BME280;56754;51.568;5.048;2024-02-23T03:12:24;98935.66;;;8.90;74.90
69535;BME280;56754;51.568;5.048;2024-02-23T03:14:50;98933.44;;;8.92;75.42
69535;BME280;56754;51.568;5.048;2024-02-23T03:17:15;98937.25;;;8.91;75.30
69535;BME280;56754;51.568;5.048;2024-02-23T03:19:40;98949.78;;;8.91;74.48
69535;BME280;56754;51.568;5.048;2024-02-23T03:22:06;98952.78;;;8.89;74.43
69535;BME280;56754;51.568;5.048;2024-02-23T03:24:31;98948.59;;;8.88;73.72
69535;BME280;56754;51.568;5.048;2024-02-23T03:26:57;98941.69;;;8.87;74.15
69535;BME280;56754;51.568;5.048;2024-02-23T03:29:22;98947.81;;;8.87;74.57
69535;BME280;56754;51.568;5.048;2024-02-23T03:31:48;98931.84;;;8.87;75.35
69535;BME280;56754;51.568;5.048;2024-02-23T03:34:13;98937.16;;;8.87;74.10
69535;BME280;56754;51.568;5.048;2024-02-23T03:36:38;98934.13;;;8.89;73.67
69535;BME280;56754;51.568;5.048;2024-02-23T03:39:04;98939.81;;;8.87;73.71
69535;BME280;56754;51.568;5.048;2024-02-23T03:41:29;98939.81;;;8.87;74.76
69535;BME280;56754;51.568;5.048;2024-02-23T03:43:54;98944.03;;;8.88;74.19
69535;BME280;56754;51.568;5.048;2024-02-23T03:46:20;98940.91;;;8.86;73.60
69535;BME280;56754;51.568;5.048;2024-02-23T03:48:45;98936.03;;;8.88;74.64
69535;BME280;56754;51.568;5.048;2024-02-23T03:51:10;98930.69;;;8.88;73.96
69535;BME280;56754;51.568;5.048;2024-02-23T03:53:36;98930.00;;;8.92;74.28
69535;BME280;56754;51.568;5.048;2024-02-23T03:56:01;98936.47;;;8.91;73.79
69535;BME280;56754;51.568;5.048;2024-02-23T03:58:26;98931.13;;;8.91;72.77
69535;BME280;56754;51.568;5.048;2024-02-23T04:00:52;98941.00;;;8.90;73.94
69535;BME280;56754;51.568;5.048;2024-02-23T04:03:17;98945.56;;;8.89;74.10
69535;BME280;56754;51.568;5.048;2024-02-23T04:05:42;98939.47;;;8.89;74.70
69535;BME280;56754;51.568;5.048;2024-02-23T04:08:07;98946.78;;;8.92;74.70
69535;BME280;56754;51.568;5.048;2024-02-23T04:10:33;98939.53;;;8.93;73.63
69535;BME280;56754;51.568;5.048;2024-02-23T04:12:58;98952.88;;;8.93;74.40
69535;BME280;56754;51.568;5.048;2024-02-23T04:15:23;98951.66;;;8.90;73.46
69535;BME280;56754;51.568;5.048;2024-02-23T04:17:49;98954.31;;;8.90;73.85
69535;BME280;56754;51.568;5.048;2024-02-23T04:20:14;98952.00;;;8.88;73.28
69535;BME280;56754;51.568;5.048;2024-02-23T04:22:39;98955.81;;;8.87;73.61
69535;BME280;56754;51.568;5.048;2024-02-23T04:25:05;98955.81;;;8.87;73.64
69535;BME280;56754;51.568;5.048;2024-02-23T04:27:31;98942.50;;;8.87;75.49
69535;BME280;56754;51.568;5.048;2024-02-23T04:29:57;98950.03;;;8.85;72.89
69535;BME280;56754;51.568;5.048;2024-02-23T04:32:22;98947.69;;;8.84;73.94
69535;BME280;56754;51.568;5.048;2024-02-23T04:34:47;98946.94;;;8.83;73.07
69535;BME280;56754;51.568;5.048;2024-02-23T04:37:13;98940.06;;;8.82;73.07
69535;BME280;56754;51.568;5.048;2024-02-23T04:39:38;98939.31;;;8.82;73.78
69535;BME280;56754;51.568;5.048;2024-02-23T04:42:04;98943.06;;;8.81;73.79
69535;BME280;56754;51.568;5.048;2024-02-23T04:44:29;98938.88;;;8.80;72.10
69535;BME280;56754;51.568;5.048;2024-02-23T04:46:54;98931.63;;;8.80;72.95
69535;BME280;56754;51.568;5.048;2024-02-23T04:49:20;98940.41;;;8.81;71.83
69535;BME280;56754;51.568;5.048;2024-02-23T04:51:45;98943.06;;;8.81;75.00
69535;BME280;56754;51.568;5.048;2024-02-23T04:54:10;98948.06;;;8.82;73.81
69535;BME280;56754;51.568;5.048;2024-02-23T04:56:36;98949.59;;;8.83;73.15
69535;BME280;56754;51.568;5.048;2024-02-23T04:59:01;98952.34;;;8.87;73.42
69535;BME280;56754;51.568;5.048;2024-02-23T05:01:26;98953.13;;;8.87;74.04
69535;BME280;56754;51.568;5.048;2024-02-23T05:03:52;98948.22;;;8.89;74.03
69535;BME280;56754;51.568;5.048;2024-02-23T05:06:17;98959.66;;;8.90;73.71
69535;BME280;56754;51.568;5.048;2024-02-23T05:08:42;98962.44;;;8.94;74.50
69535;BME280;56754;51.568;5.048;2024-02-23T05:11:08;98963.97;;;8.95;74.46
69535;BME280;56754;51.568;5.048;2024-02-23T05:13:33;98968.16;;;8.96;74.59
69535;BME280;56754;51.568;5.048;2024-02-23T05:15:58;98958.31;;;8.96;74.67
69535;BME280;56754;51.568;5.048;2024-02-23T05:18:24;98955.28;;;8.98;74.71
69535;BME280;56754;51.568;5.048;2024-02-23T05:20:49;98963.72;;;9.00;74.53
69535;BME280;56754;51.568;5.048;2024-02-23T05:23:14;98960.28;;;8.99;74.11
69535;BME280;56754;51.568;5.048;2024-02-23T05:25:39;98961.47;;;9.02;73.96
69535;BME280;56754;51.568;5.048;2024-02-23T05:28:05;98953.47;;;9.02;73.73
69535;BME280;56754;51.568;5.048;2024-02-23T05:30:30;98951.25;;;9.04;74.55
69535;BME280;56754;51.568;5.048;2024-02-23T05:32:55;98958.91;;;9.05;74.38
69535;BME280;56754;51.568;5.048;2024-02-23T05:35:21;98946.34;;;9.06;73.81
69535;BME280;56754;51.568;5.048;2024-02-23T05:37:46;98938.34;;;9.06;74.74
69535;BME280;56754;51.568;5.048;2024-02-23T05:40:11;98939.56;;;9.08;74.14
69535;BME280;56754;51.568;5.048;2024-02-23T05:42:37;98942.22;;;9.08;73.33
69535;BME280;56754;51.568;5.048;2024-02-23T05:45:03;98938.00;;;9.07;74.00
69535;BME280;56754;51.568;5.048;2024-02-23T05:47:28;98932.66;;;9.07;73.76
69535;BME280;56754;51.568;5.048;2024-02-23T05:49:54;98934.22;;;9.08;73.12
69535;BME280;56754;51.568;5.048;2024-02-23T05:52:19;98939.56;;;9.08;73.13
69535;BME280;56754;51.568;5.048;2024-02-23T05:54:44;98927.78;;;9.09;73.40
69535;BME280;56754;51.568;5.048;2024-02-23T05:57:09;98945.31;;;9.10;73.80
69535;BME280;56754;51.568;5.048;2024-02-23T05:59:35;98945.31;;;9.10;74.29
69535;BME280;56754;51.568;5.048;2024-02-23T06:02:00;98938.88;;;9.11;73.97
69535;BME280;56754;51.568;5.048;2024-02-23T06:04:25;98938.50;;;9.13;74.20
69535;BME280;56754;51.568;5.048;2024-02-23T06:06:51;98940.41;;;9.13;71.70
69535;BME280;56754;51.568;5.048;2024-02-23T06:09:18;98938.09;;;9.11;71.80
69535;BME280;56754;51.568;5.048;2024-02-23T06:11:43;98937.31;;;9.10;73.28
69535;BME280;56754;51.568;5.048;2024-02-23T06:14:09;98938.88;;;9.11;73.42
69535;BME280;56754;51.568;5.048;2024-02-23T06:16:34;98946.19;;;9.15;73.97
69535;BME280;56754;51.568;5.048;2024-02-23T06:18:59;98938.94;;;9.15;73.19
69535;BME280;56754;51.568;5.048;2024-02-23T06:21:25;98932.84;;;9.15;72.89
69535;BME280;56754;51.568;5.048;2024-02-23T06:23:50;98941.63;;;9.15;73.98
69535;BME280;56754;51.568;5.048;2024-02-23T06:26:15;98938.59;;;9.17;73.78
69535;BME280;56754;51.568;5.048;2024-02-23T06:28:41;98937.06;;;9.16;72.04
69535;BME280;56754;51.568;5.048;2024-02-23T06:31:07;98945.41;;;9.14;71.50
69535;BME280;56754;51.568;5.048;2024-02-23T06:33:33;98944.97;;;9.12;70.74
69535;BME280;56754;51.568;5.048;2024-02-23T06:35:58;98940.78;;;9.11;73.15
69535;BME280;56754;51.568;5.048;2024-02-23T06:38:24;98936.97;;;9.12;73.16
69535;BME280;56754;51.568;5.048;2024-02-23T06:40:49;98932.09;;;9.14;73.44
69535;BME280;56754;51.568;5.048;2024-02-23T06:43:14;98929.06;;;9.16;73.60
69535;BME280;56754;51.568;5.048;2024-02-23T06:45:40;98938.94;;;9.15;72.52
69535;BME280;56754;51.568;5.048;2024-02-23T06:48:05;98927.53;;;9.15;71.64
69535;BME280;56754;51.568;5.048;2024-02-23T06:50:31;98926.75;;;9.14;72.91
69535;BME280;56754;51.568;5.048;2024-02-23T06:52:56;98929.81;;;9.16;72.48
69535;BME280;56754;51.568;5.048;2024-02-23T06:55:21;98935.16;;;9.16;72.29
69535;BME280;56754;51.568;5.048;2024-02-23T06:57:48;98932.84;;;9.15;71.86
69535;BME280;56754;51.568;5.048;2024-02-23T07:00:16;98932.09;;;9.14;71.78
69535;BME280;56754;51.568;5.048;2024-02-23T07:02:41;98940.06;;;9.14;69.56
69535;BME280;56754;51.568;5.048;2024-02-23T07:05:07;98933.19;;;9.13;71.77
69535;BME280;56754;51.568;5.048;2024-02-23T07:07:33;98920.28;;;9.15;71.92
69535;BME280;56754;51.568;5.048;2024-02-23T07:09:59;98929.06;;;9.16;72.63
69535;BME280;56754;51.568;5.048;2024-02-23T07:12:24;98937.06;;;9.16;70.96
69535;BME280;56754;51.568;5.048;2024-02-23T07:14:49;98942.06;;;9.17;71.89
69535;BME280;56754;51.568;5.048;2024-02-23T07:17:17;98939.78;;;9.19;72.26
69535;BME280;56754;51.568;5.048;2024-02-23T07:19:43;98941.38;;;9.20;72.88
69535;BME280;56754;51.568;5.048;2024-02-23T07:22:08;98940.66;;;9.23;71.07
69535;BME280;56754;51.568;5.048;2024-02-23T07:24:33;98943.34;;;9.23;72.43
69535;BME280;56754;51.568;5.048;2024-02-23T07:26:58;98954.06;;;9.27;72.35
69535;BME280;56754;51.568;5.048;2024-02-23T07:29:24;98943.06;;;9.28;71.67
69535;BME280;56754;51.568;5.048;2024-02-23T07:31:49;98947.28;;;9.29;71.57
69535;BME280;56754;51.568;5.048;2024-02-23T07:34:14;98949.06;;;9.25;67.92
69535;BME280;56754;51.568;5.048;2024-02-23T07:36:39;98957.06;;;9.25;71.28
69535;BME280;56754;51.568;5.048;2024-02-23T07:39:05;98949.88;;;9.26;70.66
69535;BME280;56754;51.568;5.048;2024-02-23T07:41:30;98944.19;;;9.27;72.11
69535;BME280;56754;51.568;5.048;2024-02-23T07:43:55;98946.50;;;9.29;71.44
69535;BME280;56754;51.568;5.048;2024-02-23T07:46:21;98914.53;;;9.29;70.37
69535;BME280;56754;51.568;5.048;2024-02-23T07:48:46;98926.34;;;9.31;72.46
69535;BME280;56754;51.568;5.048;2024-02-23T07:51:11;98915.81;;;9.35;71.70
69535;BME280;56754;51.568;5.048;2024-02-23T07:53:36;98926.88;;;9.37;71.82
69535;BME280;56754;51.568;5.048;2024-02-23T07:56:02;98917.78;;;9.38;70.05
69535;BME280;56754;51.568;5.048;2024-02-23T07:58:27;98909.06;;;9.41;71.70
69535;BME280;56754;51.568;5.048;2024-02-23T08:00:53;98913.28;;;9.42;70.95
69535;BME280;56754;51.568;5.048;2024-02-23T08:03:18;98898.47;;;9.45;71.44
69535;BME280;56754;51.568;5.048;2024-02-23T08:05:44;98912.16;;;9.43;69.38
69535;BME280;56754;51.568;5.048;2024-02-23T08:08:09;98913.28;;;9.42;70.48
69535;BME280;56754;51.568;5.048;2024-02-23T08:10:34;98914.03;;;9.43;70.24
69535;BME280;56754;51.568;5.048;2024-02-23T08:13:00;98905.34;;;9.46;71.36
69535;BME280;56754;51.568;5.048;2024-02-23T08:15:25;98909.66;;;9.50;71.20
69535;BME280;56754;51.568;5.048;2024-02-23T08:17:50;98900.00;;;9.62;70.41
69535;BME280;56754;51.568;5.048;2024-02-23T08:20:16;98900.00;;;9.81;69.30
69535;BME280;56754;51.568;5.048;2024-02-23T08:22:41;98908.13;;;10.08;69.82
69535;BME280;56754;51.568;5.048;2024-02-23T08:25:06;98901.03;;;10.35;69.35
69535;BME280;56754;51.568;5.048;2024-02-23T08:27:32;98902.25;;;10.60;67.97
69535;BME280;56754;51.568;5.048;2024-02-23T08:29:57;98896.78;;;10.76;67.29
69535;BME280;56754;51.568;5.048;2024-02-23T08:32:22;98906.13;;;10.86;67.55
69535;BME280;56754;51.568;5.048;2024-02-23T08:34:47;98890.84;;;10.86;66.68
69535;BME280;56754;51.568;5.048;2024-02-23T08:37:13;98900.69;;;10.82;65.45
69535;BME280;56754;51.568;5.048;2024-02-23T08:39:38;98896.88;;;10.80;66.50
69535;BME280;56754;51.568;5.048;2024-02-23T08:42:04;98893.00;;;10.77;67.17
69535;BME280;56754;51.568;5.048;2024-02-23T08:44:29;98896.72;;;10.73;66.47
69535;BME280;56754;51.568;5.048;2024-02-23T08:46:54;98889.38;;;10.66;66.61
69535;BME280;56754;51.568;5.048;2024-02-23T08:49:20;98892.75;;;10.63;66.24
69535;BME280;56754;51.568;5.048;2024-02-23T08:51:45;98897.69;;;10.61;66.02
69535;BME280;56754;51.568;5.048;2024-02-23T08:54:10;98899.16;;;10.58;64.63
69535;BME280;56754;51.568;5.048;2024-02-23T08:56:38;98912.94;;;10.60;65.68
69535;BME280;56754;51.568;5.048;2024-02-23T08:59:04;98915.19;;;10.58;65.31
69535;BME280;56754;51.568;5.048;2024-02-23T09:01:29;98907.50;;;10.53;64.93
69535;BME280;56754;51.568;5.048;2024-02-23T09:03:55;98921.63;;;10.54;64.68
69535;BME280;56754;51.568;5.048;2024-02-23T09:06:20;98928.50;;;10.55;64.97
69535;BME280;56754;51.568;5.048;2024-02-23T09:08:45;98941.41;;;10.53;64.96
69535;BME280;56754;51.568;5.048;2024-02-23T09:11:11;98935.31;;;10.52;65.91
69535;BME280;56754;51.568;5.048;2024-02-23T09:13:36;98926.91;;;10.50;66.12
69535;BME280;56754;51.568;5.048;2024-02-23T09:16:01;98936.72;;;10.46;65.97
69535;BME280;56754;51.568;5.048;2024-02-23T09:18:26;98928.28;;;10.44;66.72
69535;BME280;56754;51.568;5.048;2024-02-23T09:20:52;98935.91;;;10.42;66.63
69535;BME280;56754;51.568;5.048;2024-02-23T09:23:17;98931.66;;;10.41;67.53
69535;BME280;56754;51.568;5.048;2024-02-23T09:25:42;98931.97;;;10.36;66.65
69535;BME280;56754;51.568;5.048;2024-02-23T09:28:08;98929.31;;;10.36;67.76
69535;BME280;56754;51.568;5.048;2024-02-23T09:30:33;98938.78;;;10.33;65.73
69535;BME280;56754;51.568;5.048;2024-02-23T09:32:58;98934.41;;;10.25;66.55
69535;BME280;56754;51.568;5.048;2024-02-23T09:35:23;98941.16;;;10.19;66.97
69535;BME280;56754;51.568;5.048;2024-02-23T09:37:49;98947.63;;;10.18;67.36
69535;BME280;56754;51.568;5.048;2024-02-23T09:40:15;98944.53;;;10.16;66.75
69535;BME280;56754;51.568;5.048;2024-02-23T09:42:41;98955.84;;;10.09;66.83
69535;BME280;56754;51.568;5.048;2024-02-23T09:45:08;98950.50;;;10.09;68.50
69535;BME280;56754;51.568;5.048;2024-02-23T09:47:33;98945.94;;;10.10;67.59
69535;BME280;56754;51.568;5.048;2024-02-23T09:49:59;98949.81;;;10.12;68.17
69535;BME280;56754;51.568;5.048;2024-02-23T09:52:25;98947.19;;;10.16;68.19
69535;BME280;56754;51.568;5.048;2024-02-23T09:54:51;98944.53;;;10.16;66.75
69535;BME280;56754;51.568;5.048;2024-02-23T09:57:16;98945.34;;;10.20;67.64
69535;BME280;56754;51.568;5.048;2024-02-23T09:59:42;98948.72;;;10.17;65.05
69535;BME280;56754;51.568;5.048;2024-02-23T10:02:09;98949.09;;;10.15;66.89
69535;BME280;56754;51.568;5.048;2024-02-23T10:04:35;98952.97;;;10.18;67.56
69535;BME280;56754;51.568;5.048;2024-02-23T10:07:01;98962.84;;;10.17;67.50
69535;BME280;56754;51.568;5.048;2024-02-23T10:09:26;98963.66;;;10.18;66.79
69535;BME280;56754;51.568;5.048;2024-02-23T10:11:52;98973.53;;;10.17;66.76
69535;BME280;56754;51.568;5.048;2024-02-23T10:14:17;98966.72;;;10.20;67.72
69535;BME280;56754;51.568;5.048;2024-02-23T10:16:43;98954.84;;;10.17;67.05
69535;BME280;56754;51.568;5.048;2024-02-23T10:19:08;98969.59;;;10.11;65.25
69535;BME280;56754;51.568;5.048;2024-02-23T10:21:33;98977.91;;;10.06;66.38
69535;BME280;56754;51.568;5.048;2024-02-23T10:23:59;98968.63;;;10.00;65.63
69535;BME280;56754;51.568;5.048;2024-02-23T10:26:24;98977.03;;;10.02;67.61
69535;BME280;56754;51.568;5.048;2024-02-23T10:28:49;98972.06;;;10.00;65.63
69535;BME280;56754;51.568;5.048;2024-02-23T10:31:14;98982.81;;;10.04;67.15
69535;BME280;56754;51.568;5.048;2024-02-23T10:33:40;98974.44;;;10.06;66.89
69535;BME280;56754;51.568;5.048;2024-02-23T10:36:07;98985.91;;;10.06;66.04
69535;BME280;56754;51.568;5.048;2024-02-23T10:38:32;98982.09;;;10.07;66.29
69535;BME280;56754;51.568;5.048;2024-02-23T10:41:02;98983.66;;;10.08;66.58
69535;BME280;56754;51.568;5.048;2024-02-23T10:43:43;98984.44;;;10.09;65.11
69535;BME280;56754;51.568;5.048;2024-02-23T10:46:11;98985.63;;;10.11;65.07
69535;BME280;56754;51.568;5.048;2024-02-23T10:48:37;98995.59;;;10.14;65.70
69535;BME280;56754;51.568;5.048;2024-02-23T10:51:05;98997.16;;;10.15;65.53
69535;BME280;56754;51.568;5.048;2024-02-23T10:53:31;98991.13;;;10.18;65.41
69535;BME280;56754;51.568;5.048;2024-02-23T10:55:57;98988.94;;;10.24;65.65
69535;BME280;56754;51.568;5.048;2024-02-23T10:58:22;98985.13;;;10.25;65.07
69535;BME280;56754;51.568;5.048;2024-02-23T11:00:47;98992.38;;;10.24;65.61
69535;BME280;56754;51.568;5.048;2024-02-23T11:03:14;98991.25;;;10.25;64.42
69535;BME280;56754;51.568;5.048;2024-02-23T11:05:40;98996.59;;;10.25;64.60
69535;BME280;56754;51.568;5.048;2024-02-23T11:08:06;98995.50;;;10.27;64.92
69535;BME280;56754;51.568;5.048;2024-02-23T11:10:31;98990.56;;;10.29;64.49
69535;BME280;56754;51.568;5.048;2024-02-23T11:12:57;98982.84;;;10.23;63.92
69535;BME280;56754;51.568;5.048;2024-02-23T11:15:27;98997.22;;;10.19;64.18
69535;BME280;56754;51.568;5.048;2024-02-23T11:17:53;99011.78;;;10.21;64.83
69535;BME280;56754;51.568;5.048;2024-02-23T11:20:18;98995.75;;;10.21;64.57
69535;BME280;56754;51.568;5.048;2024-02-23T11:22:51;98989.97;;;10.19;64.60
69535;BME280;56754;51.568;5.048;2024-02-23T11:25:17;98990.84;;;10.23;65.16
69535;BME280;56754;51.568;5.048;2024-02-23T11:27:42;98998.94;;;10.27;64.76
69535;BME280;56754;51.568;5.048;2024-02-23T11:30:09;99010.41;;;10.28;64.45
69535;BME280;56754;51.568;5.048;2024-02-23T11:32:38;99010.41;;;10.28;64.12
69535;BME280;56754;51.568;5.048;2024-02-23T11:35:03;99012.28;;;10.27;64.85
69535;BME280;56754;51.568;5.048;2024-02-23T11:37:30;99010.69;;;10.26;63.54
69535;BME280;56754;51.568;5.048;2024-02-23T11:39:56;99006.06;;;10.23;63.83
69535;BME280;56754;51.568;5.048;2024-02-23T11:42:23;99013.75;;;10.24;63.85
69535;BME280;56754;51.568;5.048;2024-02-23T11:44:50;99001.53;;;10.23;63.93
69535;BME280;56754;51.568;5.048;2024-02-23T11:47:15;99016.41;;;10.24;64.59
69535;BME280;56754;51.568;5.048;2024-02-23T11:49:40;99014.50;;;10.25;64.21
69535;BME280;56754;51.568;5.048;2024-02-23T11:52:06;99014.19;;;10.27;64.49
69535;BME280;56754;51.568;5.048;2024-02-23T11:54:31;99019.94;;;10.29;64.35
69535;BME280;56754;51.568;5.048;2024-02-23T11:56:57;99012.59;;;10.25;63.95
69535;BME280;56754;51.568;5.048;2024-02-23T11:59:22;99022.97;;;10.27;64.21
69535;BME280;56754;51.568;5.048;2024-02-23T12:01:47;99030.53;;;10.25;63.26
69535;BME280;56754;51.568;5.048;2024-02-23T12:04:14;99029.09;;;10.28;64.54
69535;BME280;56754;51.568;5.048;2024-02-23T12:06:40;99030.63;;;10.29;64.35
69535;BME280;56754;51.568;5.048;2024-02-23T12:09:05;99022.63;;;10.29;64.45
69535;BME280;56754;51.568;5.048;2024-02-23T12:11:31;99023.03;;;10.31;64.59
69535;BME280;56754;51.568;5.048;2024-02-23T12:13:56;99028.44;;;10.34;64.98
69535;BME280;56754;51.568;5.048;2024-02-23T12:16:22;99027.75;;;10.37;64.57
69535;BME280;56754;51.568;5.048;2024-02-23T12:18:53;99021.63;;;10.37;64.46
69535;BME280;56754;51.568;5.048;2024-02-23T12:21:18;99032.31;;;10.37;64.12
69535;BME280;56754;51.568;5.048;2024-02-23T12:23:44;99026.56;;;10.35;63.69
69535;BME280;56754;51.568;5.048;2024-02-23T12:26:12;99037.66;;;10.37;64.35
69535;BME280;56754;51.568;5.048;2024-02-23T12:28:38;99041.47;;;10.36;64.16
69535;BME280;56754;51.568;5.048;2024-02-23T12:31:04;99038.03;;;10.35;64.44
69535;BME280;56754;51.568;5.048;2024-02-23T12:33:32;99044.19;;;10.39;65.04
69535;BME280;56754;51.568;5.048;2024-02-23T12:36:01;99048.06;;;10.42;64.60
69535;BME280;56754;51.568;5.048;2024-02-23T12:38:26;99045.03;;;10.43;64.21
69535;BME280;56754;51.568;5.048;2024-02-23T12:40:52;99045.41;;;10.42;64.14
69535;BME280;56754;51.568;5.048;2024-02-23T12:43:18;99047.22;;;10.38;63.00
69535;BME280;56754;51.568;5.048;2024-02-23T12:45:43;99044.19;;;10.39;64.40
69535;BME280;56754;51.568;5.048;2024-02-23T12:48:09;99054.94;;;10.43;64.77
69535;BME280;56754;51.568;5.048;2024-02-23T12:50:34;99056.50;;;10.44;64.34
69535;BME280;56754;51.568;5.048;2024-02-23T12:52:59;99054.63;;;10.44;62.89
69535;BME280;56754;51.568;5.048;2024-02-23T12:55:25;99044.28;;;10.43;62.58
69535;BME280;56754;51.568;5.048;2024-02-23T12:57:50;99045.41;;;10.42;63.42